Elberfeld, Indiana
Current Conditions -  °F | °C
As of 11:54 AM on Wednesday 28 Jan 2015 (Local Time) from KEVV Reporting Station
Clear Clear  
Wind Chill: 29°   Ceiling: Unl
Heat Index: 37°   Visibility: 10mi
Dew Point: 21°   Wind: 12mph
Humidity: 52%   Direction: 120°ESE
Pressure: 30.3"   Gusts: NA
Location:  38.16°N, 87.45°W
Report Text: KEVV 281754Z 12010KT 10SM CLR 03/M06 A3030 RMK AO2 SLP263 T00281061 10028 21022 58021
Loading
Personal Weather Stations






























Interactive Weather Map New forecast layout! Learn more

10-Day Weather Forecast

Advertisements
Track Severe Weather on mobile